sensor_id;sensor_type;location;lat;lon;timestamp;temperature;humidity
48589;DHT22;34369;51.174;6.738;2022-09-27T00:01:33;11.10;90.50
48589;DHT22;34369;51.174;6.738;2022-09-27T00:04:05;11.00;90.50
48589;DHT22;34369;51.174;6.738;2022-09-27T00:06:37;11.00;90.50
48589;DHT22;34369;51.174;6.738;2022-09-27T00:09:10;11.00;90.50
48589;DHT22;34369;51.174;6.738;2022-09-27T00:11:42;11.00;90.50
48589;DHT22;34369;51.174;6.738;2022-09-27T00:14:15;11.00;90.40
48589;DHT22;34369;51.174;6.738;2022-09-27T00:19:21;11.00;90.30
48589;DHT22;34369;51.174;6.738;2022-09-27T00:21:53;11.00;90.50
48589;DHT22;34369;51.174;6.738;2022-09-27T00:24:26;11.00;90.50
48589;DHT22;34369;51.174;6.738;2022-09-27T00:26:58;10.90;90.60
48589;DHT22;34369;51.174;6.738;2022-09-27T00:29:30;10.90;90.60
48589;DHT22;34369;51.174;6.738;2022-09-27T00:32:02;10.90;90.70
48589;DHT22;34369;51.174;6.738;2022-09-27T00:34:34;10.90;90.70
48589;DHT22;34369;51.174;6.738;2022-09-27T00:39:40;10.80;90.70
48589;DHT22;34369;51.174;6.738;2022-09-27T00:42:13;10.80;90.60
48589;DHT22;34369;51.174;6.738;2022-09-27T00:45:04;10.80;90.70
48589;DHT22;34369;51.174;6.738;2022-09-27T00:47:46;10.80;91.10
48589;DHT22;34369;51.174;6.738;2022-09-27T00:50:25;10.80;90.90
48589;DHT22;34369;51.174;6.738;2022-09-27T00:53:07;10.80;91.00
48589;DHT22;34369;51.174;6.738;2022-09-27T00:55:45;10.80;90.90
48589;DHT22;34369;51.174;6.738;2022-09-27T00:58:28;10.70;90.90
48589;DHT22;34369;51.174;6.738;2022-09-27T01:01:05;10.80;90.90
48589;DHT22;34369;51.174;6.738;2022-09-27T01:03:43;10.80;90.90
48589;DHT22;34369;51.174;6.738;2022-09-27T01:06:18;10.70;90.90
48589;DHT22;34369;51.174;6.738;2022-09-27T01:08:51;10.80;90.90
48589;DHT22;34369;51.174;6.738;2022-09-27T01:11:34;10.70;90.80
48589;DHT22;34369;51.174;6.738;2022-09-27T01:14:28;10.70;90.90
48589;DHT22;34369;51.174;6.738;2022-09-27T01:17:21;10.70;90.90
48589;DHT22;34369;51.174;6.738;2022-09-27T01:20:15;10.80;90.90
48589;DHT22;34369;51.174;6.738;2022-09-27T01:23:07;10.70;90.90
48589;DHT22;34369;51.174;6.738;2022-09-27T01:25:54;10.70;90.90
48589;DHT22;34369;51.174;6.738;2022-09-27T01:28:46;10.60;90.90
48589;DHT22;34369;51.174;6.738;2022-09-27T01:31:32;10.70;90.70
48589;DHT22;34369;51.174;6.738;2022-09-27T01:34:12;10.70;90.90
48589;DHT22;34369;51.174;6.738;2022-09-27T01:36:55;15.80;92.20
48589;DHT22;34369;51.174;6.738;2022-09-27T01:39:41;10.60;90.90
48589;DHT22;34369;51.174;6.738;2022-09-27T01:42:21;10.70;91.00
48589;DHT22;34369;51.174;6.738;2022-09-27T01:44:59;10.80;91.00
48589;DHT22;34369;51.174;6.738;2022-09-27T01:47:40;10.60;91.00
48589;DHT22;34369;51.174;6.738;2022-09-27T01:50:17;10.70;90.90
48589;DHT22;34369;51.174;6.738;2022-09-27T01:52:52;10.70;91.10
48589;DHT22;34369;51.174;6.738;2022-09-27T01:55:29;10.70;90.80
48589;DHT22;34369;51.174;6.738;2022-09-27T01:58:11;10.60;90.80
48589;DHT22;34369;51.174;6.738;2022-09-27T02:00:48;10.60;90.80
48589;DHT22;34369;51.174;6.738;2022-09-27T02:03:26;10.50;90.90
48589;DHT22;34369;51.174;6.738;2022-09-27T02:06:03;10.60;91.00
48589;DHT22;34369;51.174;6.738;2022-09-27T02:08:42;10.50;91.00
48589;DHT22;34369;51.174;6.738;2022-09-27T02:11:15;10.60;90.90
48589;DHT22;34369;51.174;6.738;2022-09-27T02:13:52;10.60;91.00
48589;DHT22;34369;51.174;6.738;2022-09-27T02:16:30;10.60;91.00
48589;DHT22;34369;51.174;6.738;2022-09-27T02:19:12;10.70;91.00
48589;DHT22;34369;51.174;6.738;2022-09-27T02:21:54;10.60;91.00
48589;DHT22;34369;51.174;6.738;2022-09-27T02:24:35;10.70;91.00
48589;DHT22;34369;51.174;6.738;2022-09-27T02:27:12;10.60;91.00
48589;DHT22;34369;51.174;6.738;2022-09-27T02:29:52;10.60;90.90
48589;DHT22;34369;51.174;6.738;2022-09-27T02:32:28;10.60;90.80
48589;DHT22;34369;51.174;6.738;2022-09-27T02:35:06;10.60;90.90
48589;DHT22;34369;51.174;6.738;2022-09-27T02:37:39;10.60;90.90
48589;DHT22;34369;51.174;6.738;2022-09-27T02:40:11;10.70;91.00
48589;DHT22;34369;51.174;6.738;2022-09-27T02:42:43;10.50;90.90
48589;DHT22;34369;51.174;6.738;2022-09-27T02:45:17;10.50;90.90
48589;DHT22;34369;51.174;6.738;2022-09-27T02:47:59;10.50;90.90
48589;DHT22;34369;51.174;6.738;2022-09-27T02:50:56;10.40;90.80
48589;DHT22;34369;51.174;6.738;2022-09-27T02:53:40;10.40;90.80
48589;DHT22;34369;51.174;6.738;2022-09-27T02:56:24;10.40;90.80
48589;DHT22;34369;51.174;6.738;2022-09-27T02:59:02;10.40;90.80
48589;DHT22;34369;51.174;6.738;2022-09-27T03:01:40;10.40;90.90
48589;DHT22;34369;51.174;6.738;2022-09-27T03:04:21;10.30;90.80
48589;DHT22;34369;51.174;6.738;2022-09-27T03:06:59;10.30;90.90
48589;DHT22;34369;51.174;6.738;2022-09-27T03:09:40;10.40;90.90
48589;DHT22;34369;51.174;6.738;2022-09-27T03:12:14;10.40;90.80
48589;DHT22;34369;51.174;6.738;2022-09-27T03:14:50;10.30;90.80
48589;DHT22;34369;51.174;6.738;2022-09-27T03:17:22;10.20;90.70
48589;DHT22;34369;51.174;6.738;2022-09-27T03:19:54;10.20;90.70
48589;DHT22;34369;51.174;6.738;2022-09-27T03:22:27;10.20;90.60
48589;DHT22;34369;51.174;6.738;2022-09-27T03:24:59;10.10;90.60
48589;DHT22;34369;51.174;6.738;2022-09-27T03:27:31;10.10;90.40
48589;DHT22;34369;51.174;6.738;2022-09-27T03:30:03;10.10;90.40
48589;DHT22;34369;51.174;6.738;2022-09-27T03:32:37;10.10;90.40
48589;DHT22;34369;51.174;6.738;2022-09-27T03:35:15;10.00;90.30
48589;DHT22;34369;51.174;6.738;2022-09-27T03:37:48;10.00;90.30
48589;DHT22;34369;51.174;6.738;2022-09-27T03:40:20;9.80;90.20
48589;DHT22;34369;51.174;6.738;2022-09-27T03:42:53;9.80;90.20
48589;DHT22;34369;51.174;6.738;2022-09-27T03:47:57;9.80;90.40
48589;DHT22;34369;51.174;6.738;2022-09-27T03:50:29;9.60;90.40
48589;DHT22;34369;51.174;6.738;2022-09-27T03:53:03;9.70;90.50
48589;DHT22;34369;51.174;6.738;2022-09-27T03:55:35;9.60;90.50
48589;DHT22;34369;51.174;6.738;2022-09-27T03:58:07;9.30;90.60
48589;DHT22;34369;51.174;6.738;2022-09-27T04:00:38;9.50;90.50
48589;DHT22;34369;51.174;6.738;2022-09-27T04:03:12;9.50;90.80
48589;DHT22;34369;51.174;6.738;2022-09-27T04:05:44;9.40;90.80
48589;DHT22;34369;51.174;6.738;2022-09-27T04:08:18;9.40;90.70
48589;DHT22;34369;51.174;6.738;2022-09-27T04:10:50;9.40;90.80
48589;DHT22;34369;51.174;6.738;2022-09-27T04:13:22;9.30;90.80
48589;DHT22;34369;51.174;6.738;2022-09-27T04:15:55;9.30;90.90
48589;DHT22;34369;51.174;6.738;2022-09-27T04:18:26;13.20;91.90
48589;DHT22;34369;51.174;6.738;2022-09-27T04:20:58;9.30;91.00
48589;DHT22;34369;51.174;6.738;2022-09-27T04:23:32;9.20;90.90
48589;DHT22;34369;51.174;6.738;2022-09-27T04:26:04;9.20;91.00
48589;DHT22;34369;51.174;6.738;2022-09-27T04:28:37;9.20;91.00
48589;DHT22;34369;51.174;6.738;2022-09-27T04:31:09;9.20;91.00
48589;DHT22;34369;51.174;6.738;2022-09-27T04:33:41;9.20;91.10
48589;DHT22;34369;51.174;6.738;2022-09-27T04:36:16;9.10;91.10
48589;DHT22;34369;51.174;6.738;2022-09-27T04:39:00;9.10;91.20
48589;DHT22;34369;51.174;6.738;2022-09-27T04:41:33;9.00;91.20
48589;DHT22;34369;51.174;6.738;2022-09-27T04:44:06;8.90;91.10
48589;DHT22;34369;51.174;6.738;2022-09-27T04:46:37;9.10;91.30
48589;DHT22;34369;51.174;6.738;2022-09-27T04:49:10;9.10;91.30
48589;DHT22;34369;51.174;6.738;2022-09-27T04:51:41;9.10;91.30
48589;DHT22;34369;51.174;6.738;2022-09-27T04:54:15;9.00;91.30
48589;DHT22;34369;51.174;6.738;2022-09-27T04:56:48;9.10;91.20
48589;DHT22;34369;51.174;6.738;2022-09-27T04:59:20;9.00;91.30
48589;DHT22;34369;51.174;6.738;2022-09-27T05:01:52;9.10;91.30
48589;DHT22;34369;51.174;6.738;2022-09-27T05:04:24;9.00;91.40
48589;DHT22;34369;51.174;6.738;2022-09-27T05:06:56;9.10;91.30
48589;DHT22;34369;51.174;6.738;2022-09-27T05:09:29;9.00;91.30
48589;DHT22;34369;51.174;6.738;2022-09-27T05:12:02;9.00;91.30
48589;DHT22;34369;51.174;6.738;2022-09-27T05:14:37;9.10;91.20
48589;DHT22;34369;51.174;6.738;2022-09-27T05:17:09;9.00;91.10
48589;DHT22;34369;51.174;6.738;2022-09-27T05:19:41;9.10;91.10
48589;DHT22;34369;51.174;6.738;2022-09-27T05:24:46;9.00;91.00
48589;DHT22;34369;51.174;6.738;2022-09-27T05:27:18;8.90;91.00
48589;DHT22;34369;51.174;6.738;2022-09-27T05:29:50;9.10;91.20
48589;DHT22;34369;51.174;6.738;2022-09-27T05:32:23;9.00;91.20
48589;DHT22;34369;51.174;6.738;2022-09-27T05:34:55;9.00;91.20
48589;DHT22;34369;51.174;6.738;2022-09-27T05:40:02;8.90;91.30
48589;DHT22;34369;51.174;6.738;2022-09-27T05:42:37;9.10;91.30
48589;DHT22;34369;51.174;6.738;2022-09-27T05:45:09;9.00;91.20
48589;DHT22;34369;51.174;6.738;2022-09-27T05:47:41;8.90;91.10
48589;DHT22;34369;51.174;6.738;2022-09-27T05:50:13;9.00;91.10
48589;DHT22;34369;51.174;6.738;2022-09-27T05:52:46;9.00;91.20
48589;DHT22;34369;51.174;6.738;2022-09-27T05:55:20;9.00;91.00
48589;DHT22;34369;51.174;6.738;2022-09-27T05:57:56;9.00;91.10
48589;DHT22;34369;51.174;6.738;2022-09-27T06:00:30;9.10;91.00
48589;DHT22;34369;51.174;6.738;2022-09-27T06:03:04;9.00;91.00
48589;DHT22;34369;51.174;6.738;2022-09-27T06:05:38;9.10;90.90
48589;DHT22;34369;51.174;6.738;2022-09-27T06:08:12;9.10;90.90
48589;DHT22;34369;51.174;6.738;2022-09-27T06:10:46;9.00;91.00
48589;DHT22;34369;51.174;6.738;2022-09-27T06:13:18;9.10;91.10
48589;DHT22;34369;51.174;6.738;2022-09-27T06:15:52;9.10;91.00
48589;DHT22;34369;51.174;6.738;2022-09-27T06:18:24;9.10;91.10
48589;DHT22;34369;51.174;6.738;2022-09-27T06:20:58;9.10;91.10
48589;DHT22;34369;51.174;6.738;2022-09-27T06:23:31;9.10;91.00
48589;DHT22;34369;51.174;6.738;2022-09-27T06:26:05;9.20;90.90
48589;DHT22;34369;51.174;6.738;2022-09-27T06:28:38;9.20;90.90
48589;DHT22;34369;51.174;6.738;2022-09-27T06:31:10;9.30;90.70
48589;DHT22;34369;51.174;6.738;2022-09-27T06:33:43;9.30;90.80
48589;DHT22;34369;51.174;6.738;2022-09-27T06:36:16;9.30;90.80
48589;DHT22;34369;51.174;6.738;2022-09-27T06:38:48;9.40;90.80
48589;DHT22;34369;51.174;6.738;2022-09-27T06:41:21;9.30;90.70
48589;DHT22;34369;51.174;6.738;2022-09-27T06:43:53;9.30;90.80
48589;DHT22;34369;51.174;6.738;2022-09-27T06:46:25;9.40;90.70
48589;DHT22;34369;51.174;6.738;2022-09-27T06:48:57;9.20;90.60
48589;DHT22;34369;51.174;6.738;2022-09-27T06:51:29;9.30;90.60
48589;DHT22;34369;51.174;6.738;2022-09-27T06:54:01;9.30;90.60
48589;DHT22;34369;51.174;6.738;2022-09-27T06:56:34;9.40;90.70
48589;DHT22;34369;51.174;6.738;2022-09-27T06:59:06;9.40;90.80
48589;DHT22;34369;51.174;6.738;2022-09-27T07:01:56;9.50;90.70
48589;DHT22;34369;51.174;6.738;2022-09-27T07:04:28;9.50;90.80
48589;DHT22;34369;51.174;6.738;2022-09-27T07:07:00;9.40;90.60
48589;DHT22;34369;51.174;6.738;2022-09-27T07:09:32;9.40;90.40
48589;DHT22;34369;51.174;6.738;2022-09-27T07:12:05;9.50;90.40
48589;DHT22;34369;51.174;6.738;2022-09-27T07:14:37;9.60;90.30
48589;DHT22;34369;51.174;6.738;2022-09-27T07:17:09;9.60;90.40
48589;DHT22;34369;51.174;6.738;2022-09-27T07:19:42;9.50;90.30
48589;DHT22;34369;51.174;6.738;2022-09-27T07:22:14;9.50;90.20
48589;DHT22;34369;51.174;6.738;2022-09-27T07:24:47;9.50;90.20
48589;DHT22;34369;51.174;6.738;2022-09-27T07:27:20;9.50;90.40
48589;DHT22;34369;51.174;6.738;2022-09-27T07:29:54;9.50;90.30
48589;DHT22;34369;51.174;6.738;2022-09-27T07:32:26;9.50;90.20
48589;DHT22;34369;51.174;6.738;2022-09-27T07:34:58;9.50;90.30
48589;DHT22;34369;51.174;6.738;2022-09-27T07:37:30;9.70;90.40
48589;DHT22;34369;51.174;6.738;2022-09-27T07:40:05;9.60;90.50
48589;DHT22;34369;51.174;6.738;2022-09-27T07:42:40;9.60;90.50
48589;DHT22;34369;51.174;6.738;2022-09-27T07:45:12;9.60;90.20
48589;DHT22;34369;51.174;6.738;2022-09-27T07:47:45;9.70;90.40
48589;DHT22;34369;51.174;6.738;2022-09-27T07:50:18;9.70;90.40
48589;DHT22;34369;51.174;6.738;2022-09-27T07:52:50;9.70;90.40
48589;DHT22;34369;51.174;6.738;2022-09-27T07:55:22;9.70;90.50
48589;DHT22;34369;51.174;6.738;2022-09-27T07:58:02;9.70;90.60
48589;DHT22;34369;51.174;6.738;2022-09-27T08:00:36;9.80;90.40
48589;DHT22;34369;51.174;6.738;2022-09-27T08:03:11;9.80;90.60
48589;DHT22;34369;51.174;6.738;2022-09-27T08:05:46;9.80;90.40
48589;DHT22;34369;51.174;6.738;2022-09-27T08:08:18;9.80;90.50
48589;DHT22;34369;51.174;6.738;2022-09-27T08:10:50;10.00;90.30
48589;DHT22;34369;51.174;6.738;2022-09-27T08:13:23;9.90;90.20
48589;DHT22;34369;51.174;6.738;2022-09-27T08:16:00;10.00;90.10
48589;DHT22;34369;51.174;6.738;2022-09-27T08:18:32;9.90;90.10
48589;DHT22;34369;51.174;6.738;2022-09-27T08:21:04;10.00;90.10
48589;DHT22;34369;51.174;6.738;2022-09-27T08:23:37;10.00;89.70
48589;DHT22;34369;51.174;6.738;2022-09-27T08:26:08;10.20;90.00
48589;DHT22;34369;51.174;6.738;2022-09-27T08:28:42;10.10;90.10
48589;DHT22;34369;51.174;6.738;2022-09-27T08:31:14;10.20;90.00
48589;DHT22;34369;51.174;6.738;2022-09-27T08:33:48;10.30;89.40
48589;DHT22;34369;51.174;6.738;2022-09-27T08:36:20;10.60;89.60
48589;DHT22;34369;51.174;6.738;2022-09-27T08:38:53;10.30;88.80
48589;DHT22;34369;51.174;6.738;2022-09-27T08:41:35;10.40;88.50
48589;DHT22;34369;51.174;6.738;2022-09-27T08:44:16;10.40;88.80
48589;DHT22;34369;51.174;6.738;2022-09-27T08:47:00;10.50;89.00
48589;DHT22;34369;51.174;6.738;2022-09-27T08:49:38;10.50;89.30
48589;DHT22;34369;51.174;6.738;2022-09-27T08:52:16;10.50;88.90
48589;DHT22;34369;51.174;6.738;2022-09-27T08:54:50;10.50;88.30
48589;DHT22;34369;51.174;6.738;2022-09-27T08:57:23;10.50;88.30
48589;DHT22;34369;51.174;6.738;2022-09-27T09:00:01;10.60;88.90
48589;DHT22;34369;51.174;6.738;2022-09-27T09:02:37;10.70;88.90
48589;DHT22;34369;51.174;6.738;2022-09-27T09:05:12;10.70;88.80
48589;DHT22;34369;51.174;6.738;2022-09-27T09:07:50;10.70;89.10
48589;DHT22;34369;51.174;6.738;2022-09-27T09:10:45;10.70;88.20
48589;DHT22;34369;51.174;6.738;2022-09-27T09:17:01;10.80;88.90
48589;DHT22;34369;51.174;6.738;2022-09-27T09:19:52;10.90;88.90
48589;DHT22;34369;51.174;6.738;2022-09-27T09:22:41;11.00;88.40
48589;DHT22;34369;51.174;6.738;2022-09-27T09:25:25;11.00;88.40
48589;DHT22;34369;51.174;6.738;2022-09-27T09:28:10;10.90;87.60
48589;DHT22;34369;51.174;6.738;2022-09-27T09:30:59;11.00;87.50
48589;DHT22;34369;51.174;6.738;2022-09-27T09:33:39;11.00;87.40
48589;DHT22;34369;51.174;6.738;2022-09-27T09:36:24;11.10;87.50
48589;DHT22;34369;51.174;6.738;2022-09-27T09:39:02;11.20;87.80
48589;DHT22;34369;51.174;6.738;2022-09-27T09:41:39;11.10;87.70
48589;DHT22;34369;51.174;6.738;2022-09-27T09:44:17;11.60;86.90
48589;DHT22;34369;51.174;6.738;2022-09-27T09:46:55;11.40;86.40
48589;DHT22;34369;51.174;6.738;2022-09-27T09:49:32;11.40;87.10
48589;DHT22;34369;51.174;6.738;2022-09-27T09:52:11;11.50;86.30
48589;DHT22;34369;51.174;6.738;2022-09-27T09:54:47;11.50;85.40
48589;DHT22;34369;51.174;6.738;2022-09-27T09:57:24;11.70;85.10
48589;DHT22;34369;51.174;6.738;2022-09-27T10:00:01;11.70;85.00
48589;DHT22;34369;51.174;6.738;2022-09-27T10:02:39;11.60;85.50
48589;DHT22;34369;51.174;6.738;2022-09-27T10:05:16;11.80;85.90
48589;DHT22;34369;51.174;6.738;2022-09-27T10:07:51;11.80;85.30
48589;DHT22;34369;51.174;6.738;2022-09-27T10:10:25;11.90;84.60
48589;DHT22;34369;51.174;6.738;2022-09-27T10:15:30;12.00;84.00
48589;DHT22;34369;51.174;6.738;2022-09-27T10:18:02;12.00;84.00
48589;DHT22;34369;51.174;6.738;2022-09-27T10:20:38;12.00;84.70
48589;DHT22;34369;51.174;6.738;2022-09-27T10:23:14;11.90;83.50
48589;DHT22;34369;51.174;6.738;2022-09-27T10:25:51;12.00;84.10
48589;DHT22;34369;51.174;6.738;2022-09-27T10:28:30;12.00;83.90
48589;DHT22;34369;51.174;6.738;2022-09-27T10:31:06;12.10;84.00
48589;DHT22;34369;51.174;6.738;2022-09-27T10:33:52;12.10;84.10
48589;DHT22;34369;51.174;6.738;2022-09-27T10:36:28;12.20;84.40
48589;DHT22;34369;51.174;6.738;2022-09-27T10:39:03;12.00;84.20
48589;DHT22;34369;51.174;6.738;2022-09-27T10:41:38;12.10;84.90
48589;DHT22;34369;51.174;6.738;2022-09-27T10:44:24;12.10;84.10
48589;DHT22;34369;51.174;6.738;2022-09-27T10:47:00;12.00;84.10
48589;DHT22;34369;51.174;6.738;2022-09-27T10:49:39;12.10;83.40
48589;DHT22;34369;51.174;6.738;2022-09-27T10:52:16;12.10;83.30
48589;DHT22;34369;51.174;6.738;2022-09-27T10:54:54;12.10;83.20
48589;DHT22;34369;51.174;6.738;2022-09-27T10:57:28;12.00;83.60
48589;DHT22;34369;51.174;6.738;2022-09-27T11:00:03;11.90;84.10
48589;DHT22;34369;51.174;6.738;2022-09-27T11:02:37;11.90;83.70
48589;DHT22;34369;51.174;6.738;2022-09-27T11:05:14;11.90;84.20
48589;DHT22;34369;51.174;6.738;2022-09-27T11:08:20;11.90;84.20
48589;DHT22;34369;51.174;6.738;2022-09-27T11:11:04;12.30;85.20
48589;DHT22;34369;51.174;6.738;2022-09-27T11:13:38;12.00;84.80
48589;DHT22;34369;51.174;6.738;2022-09-27T11:16:24;12.00;83.90
48589;DHT22;34369;51.174;6.738;2022-09-27T11:19:14;12.00;84.40
48589;DHT22;34369;51.174;6.738;2022-09-27T11:22:00;12.10;85.20
48589;DHT22;34369;51.174;6.738;2022-09-27T11:24:53;12.10;84.90
48589;DHT22;34369;51.174;6.738;2022-09-27T11:27:42;12.30;85.80
48589;DHT22;34369;51.174;6.738;2022-09-27T11:30:20;12.30;85.60
48589;DHT22;34369;51.174;6.738;2022-09-27T11:33:17;12.30;85.80
48589;DHT22;34369;51.174;6.738;2022-09-27T11:36:04;12.40;82.90
48589;DHT22;34369;51.174;6.738;2022-09-27T11:38:49;12.50;82.30
48589;DHT22;34369;51.174;6.738;2022-09-27T11:41:40;12.60;82.00
48589;DHT22;34369;51.174;6.738;2022-09-27T11:44:28;12.60;80.90
48589;DHT22;34369;51.174;6.738;2022-09-27T11:47:14;12.70;80.90
48589;DHT22;34369;51.174;6.738;2022-09-27T11:50:11;12.70;80.90
48589;DHT22;34369;51.174;6.738;2022-09-27T11:53:08;12.70;81.00
48589;DHT22;34369;51.174;6.738;2022-09-27T11:55:52;12.70;80.70
48589;DHT22;34369;51.174;6.738;2022-09-27T11:58:36;12.70;80.90
48589;DHT22;34369;51.174;6.738;2022-09-27T12:01:23;12.70;80.80
48589;DHT22;34369;51.174;6.738;2022-09-27T12:04:31;12.70;79.50
48589;DHT22;34369;51.174;6.738;2022-09-27T12:07:18;12.80;79.20
48589;DHT22;34369;51.174;6.738;2022-09-27T12:09:58;12.60;78.60
48589;DHT22;34369;51.174;6.738;2022-09-27T12:12:34;12.70;78.90
48589;DHT22;34369;51.174;6.738;2022-09-27T12:15:14;12.60;78.70
48589;DHT22;34369;51.174;6.738;2022-09-27T12:17:50;12.60;78.50
48589;DHT22;34369;51.174;6.738;2022-09-27T12:20:27;12.60;79.00
48589;DHT22;34369;51.174;6.738;2022-09-27T12:23:07;12.60;78.50
48589;DHT22;34369;51.174;6.738;2022-09-27T12:25:43;12.60;78.50
48589;DHT22;34369;51.174;6.738;2022-09-27T12:28:20;12.50;78.60
48589;DHT22;34369;51.174;6.738;2022-09-27T12:31:15;12.60;78.90
48589;DHT22;34369;51.174;6.738;2022-09-27T12:33:58;12.60;78.60
48589;DHT22;34369;51.174;6.738;2022-09-27T12:36:36;12.60;78.40
48589;DHT22;34369;51.174;6.738;2022-09-27T12:39:17;12.60;78.40
48589;DHT22;34369;51.174;6.738;2022-09-27T12:41:54;12.40;77.80
48589;DHT22;34369;51.174;6.738;2022-09-27T12:44:36;12.40;78.10
48589;DHT22;34369;51.174;6.738;2022-09-27T12:47:18;12.40;77.50
48589;DHT22;34369;51.174;6.738;2022-09-27T12:50:14;12.30;77.20
48589;DHT22;34369;51.174;6.738;2022-09-27T12:53:01;12.20;76.30
48589;DHT22;34369;51.174;6.738;2022-09-27T12:55:53;12.10;76.40
48589;DHT22;34369;51.174;6.738;2022-09-27T12:58:39;12.00;76.90
48589;DHT22;34369;51.174;6.738;2022-09-27T13:01:35;11.90;77.80
48589;DHT22;34369;51.174;6.738;2022-09-27T13:04:44;11.70;78.30
48589;DHT22;34369;51.174;6.738;2022-09-27T13:07:33;11.90;78.30
48589;DHT22;34369;51.174;6.738;2022-09-27T13:10:33;11.70;78.50
48589;DHT22;34369;51.174;6.738;2022-09-27T13:13:11;11.60;78.90
48589;DHT22;34369;51.174;6.738;2022-09-27T13:15:45;11.60;79.00
48589;DHT22;34369;51.174;6.738;2022-09-27T13:18:31;11.70;79.70
48589;DHT22;34369;51.174;6.738;2022-09-27T13:21:56;11.90;80.10
48589;DHT22;34369;51.174;6.738;2022-09-27T13:24:38;11.70;80.10
48589;DHT22;34369;51.174;6.738;2022-09-27T13:27:38;11.70;79.80
48589;DHT22;34369;51.174;6.738;2022-09-27T13:33:32;11.80;79.00
48589;DHT22;34369;51.174;6.738;2022-09-27T13:36:19;12.00;78.70
48589;DHT22;34369;51.174;6.738;2022-09-27T13:39:16;12.00;78.60
48589;DHT22;34369;51.174;6.738;2022-09-27T13:42:08;12.10;78.60
48589;DHT22;34369;51.174;6.738;2022-09-27T13:45:03;12.10;77.80
48589;DHT22;34369;51.174;6.738;2022-09-27T13:47:47;12.20;77.70
48589;DHT22;34369;51.174;6.738;2022-09-27T13:50:25;12.20;77.40
48589;DHT22;34369;51.174;6.738;2022-09-27T13:53:02;12.10;77.30
48589;DHT22;34369;51.174;6.738;2022-09-27T13:55:42;12.10;75.80
48589;DHT22;34369;51.174;6.738;2022-09-27T13:58:29;12.20;75.80
48589;DHT22;34369;51.174;6.738;2022-09-27T14:01:14;12.30;76.20
48589;DHT22;34369;51.174;6.738;2022-09-27T14:03:50;12.30;76.30
48589;DHT22;34369;51.174;6.738;2022-09-27T14:06:25;12.30;76.70
48589;DHT22;34369;51.174;6.738;2022-09-27T14:09:03;12.50;76.30
48589;DHT22;34369;51.174;6.738;2022-09-27T14:11:41;12.30;75.70
48589;DHT22;34369;51.174;6.738;2022-09-27T14:14:16;12.50;75.70
48589;DHT22;34369;51.174;6.738;2022-09-27T14:16:50;12.50;75.60
48589;DHT22;34369;51.174;6.738;2022-09-27T14:19:24;12.50;75.60
48589;DHT22;34369;51.174;6.738;2022-09-27T14:21:57;12.60;76.00
48589;DHT22;34369;51.174;6.738;2022-09-27T14:24:30;12.60;76.10
48589;DHT22;34369;51.174;6.738;2022-09-27T14:27:13;12.60;75.00
48589;DHT22;34369;51.174;6.738;2022-09-27T14:29:49;12.60;74.90
48589;DHT22;34369;51.174;6.738;2022-09-27T14:32:25;12.60;74.60
48589;DHT22;34369;51.174;6.738;2022-09-27T14:35:04;12.70;74.80
48589;DHT22;34369;51.174;6.738;2022-09-27T14:37:59;12.60;74.60
48589;DHT22;34369;51.174;6.738;2022-09-27T14:40:34;12.60;74.30
48589;DHT22;34369;51.174;6.738;2022-09-27T14:43:16;12.50;74.50
48589;DHT22;34369;51.174;6.738;2022-09-27T14:45:51;12.50;74.20
48589;DHT22;34369;51.174;6.738;2022-09-27T14:48:29;12.50;74.70
48589;DHT22;34369;51.174;6.738;2022-09-27T14:51:14;12.40;74.50
48589;DHT22;34369;51.174;6.738;2022-09-27T14:53:52;12.50;75.00
48589;DHT22;34369;51.174;6.738;2022-09-27T14:56:29;12.50;75.10
48589;DHT22;34369;51.174;6.738;2022-09-27T14:59:08;12.50;75.10
48589;DHT22;34369;51.174;6.738;2022-09-27T15:01:47;12.40;74.80
48589;DHT22;34369;51.174;6.738;2022-09-27T15:04:22;12.40;74.70
48589;DHT22;34369;51.174;6.738;2022-09-27T15:06:55;12.30;74.60
48589;DHT22;34369;51.174;6.738;2022-09-27T15:09:27;12.20;74.80
48589;DHT22;34369;51.174;6.738;2022-09-27T15:12:00;12.30;74.90
48589;DHT22;34369;51.174;6.738;2022-09-27T15:14:35;12.30;75.30
48589;DHT22;34369;51.174;6.738;2022-09-27T15:17:15;12.20;75.40
48589;DHT22;34369;51.174;6.738;2022-09-27T15:19:58;12.20;75.70
48589;DHT22;34369;51.174;6.738;2022-09-27T15:22:34;12.20;75.30
48589;DHT22;34369;51.174;6.738;2022-09-27T15:25:16;12.10;75.70
48589;DHT22;34369;51.174;6.738;2022-09-27T15:27:52;12.20;75.10
48589;DHT22;34369;51.174;6.738;2022-09-27T15:30:32;12.10;74.90
48589;DHT22;34369;51.174;6.738;2022-09-27T15:33:15;12.20;75.30
48589;DHT22;34369;51.174;6.738;2022-09-27T15:35:51;12.00;75.30
48589;DHT22;34369;51.174;6.738;2022-09-27T15:38:26;12.00;75.60
48589;DHT22;34369;51.174;6.738;2022-09-27T15:41:03;12.00;76.20
48589;DHT22;34369;51.174;6.738;2022-09-27T15:43:39;11.90;76.30
48589;DHT22;34369;51.174;6.738;2022-09-27T15:46:33;11.90;76.50
48589;DHT22;34369;51.174;6.738;2022-09-27T15:49:21;11.90;76.70
48589;DHT22;34369;51.174;6.738;2022-09-27T15:52:03;11.80;76.90
48589;DHT22;34369;51.174;6.738;2022-09-27T15:54:37;11.80;77.50
48589;DHT22;34369;51.174;6.738;2022-09-27T15:57:10;11.80;77.40
48589;DHT22;34369;51.174;6.738;2022-09-27T15:59:43;11.70;78.10
48589;DHT22;34369;51.174;6.738;2022-09-27T16:02:16;11.60;77.90
48589;DHT22;34369;51.174;6.738;2022-09-27T16:04:50;11.60;78.30
48589;DHT22;34369;51.174;6.738;2022-09-27T16:07:22;11.70;78.40
48589;DHT22;34369;51.174;6.738;2022-09-27T16:09:54;11.50;78.00
48589;DHT22;34369;51.174;6.738;2022-09-27T16:12:26;11.50;78.30
48589;DHT22;34369;51.174;6.738;2022-09-27T16:15:00;11.60;79.10
48589;DHT22;34369;51.174;6.738;2022-09-27T16:17:33;11.50;79.50
48589;DHT22;34369;51.174;6.738;2022-09-27T16:20:13;11.40;79.00
48589;DHT22;34369;51.174;6.738;2022-09-27T16:22:49;11.40;79.20
48589;DHT22;34369;51.174;6.738;2022-09-27T16:25:22;11.30;79.00
48589;DHT22;34369;51.174;6.738;2022-09-27T16:27:56;11.30;79.40
48589;DHT22;34369;51.174;6.738;2022-09-27T16:30:29;11.30;79.50
48589;DHT22;34369;51.174;6.738;2022-09-27T16:33:02;11.30;79.40
48589;DHT22;34369;51.174;6.738;2022-09-27T16:35:37;11.20;79.80
48589;DHT22;34369;51.174;6.738;2022-09-27T16:38:10;11.20;79.60
48589;DHT22;34369;51.174;6.738;2022-09-27T16:40:42;11.10;79.20
48589;DHT22;34369;51.174;6.738;2022-09-27T16:43:14;11.20;78.80
48589;DHT22;34369;51.174;6.738;2022-09-27T16:45:46;11.20;78.50
48589;DHT22;34369;51.174;6.738;2022-09-27T16:48:19;11.10;78.40
48589;DHT22;34369;51.174;6.738;2022-09-27T16:53:52;10.90;78.60
48589;DHT22;34369;51.174;6.738;2022-09-27T16:56:25;10.90;78.90
48589;DHT22;34369;51.174;6.738;2022-09-27T16:58:58;10.90;79.20
48589;DHT22;34369;51.174;6.738;2022-09-27T17:01:33;10.90;79.30
48589;DHT22;34369;51.174;6.738;2022-09-27T17:04:07;10.70;79.50
48589;DHT22;34369;51.174;6.738;2022-09-27T17:06:39;10.80;79.80